sensor_id;sensor_type;location;lat;lon;timestamp;temperature;humidity
57026;DHT22;43961;52.940;6.834;2023-08-21T00:01:43;15.30;99.90
57026;DHT22;43961;52.940;6.834;2023-08-21T00:04:09;15.30;99.90
57026;DHT22;43961;52.940;6.834;2023-08-21T00:06:35;15.30;99.90
57026;DHT22;43961;52.940;6.834;2023-08-21T00:09:01;15.30;99.90
57026;DHT22;43961;52.940;6.834;2023-08-21T00:11:27;15.20;99.90
57026;DHT22;43961;52.940;6.834;2023-08-21T00:13:53;15.20;99.90
57026;DHT22;43961;52.940;6.834;2023-08-21T00:16:19;15.20;99.90
57026;DHT22;43961;52.940;6.834;2023-08-21T00:18:45;15.10;99.90
57026;DHT22;43961;52.940;6.834;2023-08-21T00:21:10;15.20;99.90
57026;DHT22;43961;52.940;6.834;2023-08-21T00:23:36;15.20;99.90
57026;DHT22;43961;52.940;6.834;2023-08-21T00:26:03;15.20;99.90
57026;DHT22;43961;52.940;6.834;2023-08-21T00:28:29;15.10;99.90
57026;DHT22;43961;52.940;6.834;2023-08-21T00:31:05;15.10;99.90
57026;DHT22;43961;52.940;6.834;2023-08-21T00:33:33;15.10;99.90
57026;DHT22;43961;52.940;6.834;2023-08-21T00:36:00;15.00;99.90
57026;DHT22;43961;52.940;6.834;2023-08-21T00:38:26;15.00;99.90
57026;DHT22;43961;52.940;6.834;2023-08-21T00:40:52;15.00;99.90
57026;DHT22;43961;52.940;6.834;2023-08-21T00:43:18;15.00;99.90
57026;DHT22;43961;52.940;6.834;2023-08-21T00:45:45;15.00;99.90
57026;DHT22;43961;52.940;6.834;2023-08-21T00:48:13;14.90;99.90
57026;DHT22;43961;52.940;6.834;2023-08-21T00:50:40;14.90;99.90
57026;DHT22;43961;52.940;6.834;2023-08-21T00:53:08;14.90;99.90
57026;DHT22;43961;52.940;6.834;2023-08-21T00:55:34;14.90;99.90
57026;DHT22;43961;52.940;6.834;2023-08-21T00:58:02;14.90;99.90
57026;DHT22;43961;52.940;6.834;2023-08-21T01:00:30;14.80;99.90
57026;DHT22;43961;52.940;6.834;2023-08-21T01:02:56;14.80;99.90
57026;DHT22;43961;52.940;6.834;2023-08-21T01:05:23;14.70;99.90
57026;DHT22;43961;52.940;6.834;2023-08-21T01:08:17;14.70;99.90
57026;DHT22;43961;52.940;6.834;2023-08-21T01:10:56;14.70;99.90
57026;DHT22;43961;52.940;6.834;2023-08-21T01:13:40;14.60;99.90
57026;DHT22;43961;52.940;6.834;2023-08-21T01:16:08;14.60;99.90
57026;DHT22;43961;52.940;6.834;2023-08-21T01:18:35;14.60;99.90
57026;DHT22;43961;52.940;6.834;2023-08-21T01:21:03;14.60;99.90
57026;DHT22;43961;52.940;6.834;2023-08-21T01:23:40;14.60;99.90
57026;DHT22;43961;52.940;6.834;2023-08-21T01:26:07;14.50;99.90
57026;DHT22;43961;52.940;6.834;2023-08-21T01:28:34;14.50;99.90
57026;DHT22;43961;52.940;6.834;2023-08-21T01:31:14;14.50;99.90
57026;DHT22;43961;52.940;6.834;2023-08-21T01:33:49;14.50;99.90
57026;DHT22;43961;52.940;6.834;2023-08-21T01:36:17;14.50;99.90
57026;DHT22;43961;52.940;6.834;2023-08-21T01:38:43;14.50;99.90
57026;DHT22;43961;52.940;6.834;2023-08-21T01:41:09;14.50;99.90
57026;DHT22;43961;52.940;6.834;2023-08-21T01:43:35;14.40;99.90
57026;DHT22;43961;52.940;6.834;2023-08-21T01:46:02;14.40;99.90
57026;DHT22;43961;52.940;6.834;2023-08-21T01:48:28;14.40;99.90
57026;DHT22;43961;52.940;6.834;2023-08-21T01:50:54;14.40;99.90
57026;DHT22;43961;52.940;6.834;2023-08-21T01:53:20;14.40;99.90
57026;DHT22;43961;52.940;6.834;2023-08-21T01:55:46;14.30;99.90
57026;DHT22;43961;52.940;6.834;2023-08-21T01:58:11;14.30;99.90
57026;DHT22;43961;52.940;6.834;2023-08-21T02:00:37;14.30;99.90
57026;DHT22;43961;52.940;6.834;2023-08-21T02:03:03;14.30;99.90
57026;DHT22;43961;52.940;6.834;2023-08-21T02:05:28;14.20;99.90
57026;DHT22;43961;52.940;6.834;2023-08-21T02:07:56;14.20;99.90
57026;DHT22;43961;52.940;6.834;2023-08-21T02:10:22;14.20;99.90
57026;DHT22;43961;52.940;6.834;2023-08-21T02:12:53;14.20;99.90
57026;DHT22;43961;52.940;6.834;2023-08-21T02:15:19;14.20;99.90
57026;DHT22;43961;52.940;6.834;2023-08-21T02:17:47;14.20;99.90
57026;DHT22;43961;52.940;6.834;2023-08-21T02:20:13;14.20;99.90
57026;DHT22;43961;52.940;6.834;2023-08-21T02:22:38;14.10;99.90
57026;DHT22;43961;52.940;6.834;2023-08-21T02:25:04;14.10;99.90
57026;DHT22;43961;52.940;6.834;2023-08-21T02:27:30;14.10;99.90
57026;DHT22;43961;52.940;6.834;2023-08-21T02:29:56;14.10;99.90
57026;DHT22;43961;52.940;6.834;2023-08-21T02:32:21;14.10;99.90
57026;DHT22;43961;52.940;6.834;2023-08-21T02:34:47;14.00;99.90
57026;DHT22;43961;52.940;6.834;2023-08-21T02:37:13;14.00;99.90
57026;DHT22;43961;52.940;6.834;2023-08-21T02:39:38;14.00;99.90
57026;DHT22;43961;52.940;6.834;2023-08-21T02:42:04;14.00;99.90
57026;DHT22;43961;52.940;6.834;2023-08-21T02:44:30;14.00;99.90
57026;DHT22;43961;52.940;6.834;2023-08-21T02:46:55;13.90;99.90
57026;DHT22;43961;52.940;6.834;2023-08-21T02:49:21;13.90;99.90
57026;DHT22;43961;52.940;6.834;2023-08-21T02:51:47;13.90;99.90
57026;DHT22;43961;52.940;6.834;2023-08-21T02:54:12;13.90;99.90
57026;DHT22;43961;52.940;6.834;2023-08-21T02:56:38;13.80;99.90
57026;DHT22;43961;52.940;6.834;2023-08-21T02:59:04;13.80;99.90
57026;DHT22;43961;52.940;6.834;2023-08-21T03:01:29;13.80;99.90
57026;DHT22;43961;52.940;6.834;2023-08-21T03:03:55;13.70;99.90
57026;DHT22;43961;52.940;6.834;2023-08-21T03:06:20;13.80;99.90
57026;DHT22;43961;52.940;6.834;2023-08-21T03:08:46;13.70;99.90
57026;DHT22;43961;52.940;6.834;2023-08-21T03:11:12;13.80;99.90
57026;DHT22;43961;52.940;6.834;2023-08-21T03:13:38;13.70;99.90
57026;DHT22;43961;52.940;6.834;2023-08-21T03:16:04;13.70;99.90
57026;DHT22;43961;52.940;6.834;2023-08-21T03:18:31;13.70;99.90
57026;DHT22;43961;52.940;6.834;2023-08-21T03:20:57;13.60;99.90
57026;DHT22;43961;52.940;6.834;2023-08-21T03:23:23;13.70;99.90
57026;DHT22;43961;52.940;6.834;2023-08-21T03:25:52;13.60;99.90
57026;DHT22;43961;52.940;6.834;2023-08-21T03:28:18;13.60;99.90
57026;DHT22;43961;52.940;6.834;2023-08-21T03:30:44;13.60;99.90
57026;DHT22;43961;52.940;6.834;2023-08-21T03:33:09;13.60;99.90
57026;DHT22;43961;52.940;6.834;2023-08-21T03:35:35;13.50;99.90
57026;DHT22;43961;52.940;6.834;2023-08-21T03:38:01;13.50;99.90
57026;DHT22;43961;52.940;6.834;2023-08-21T03:40:26;13.50;99.90
57026;DHT22;43961;52.940;6.834;2023-08-21T03:42:52;13.50;99.90
57026;DHT22;43961;52.940;6.834;2023-08-21T03:45:18;13.40;99.90
57026;DHT22;43961;52.940;6.834;2023-08-21T03:47:45;13.40;99.90
57026;DHT22;43961;52.940;6.834;2023-08-21T03:50:11;13.40;99.90
57026;DHT22;43961;52.940;6.834;2023-08-21T03:52:36;13.40;99.90
57026;DHT22;43961;52.940;6.834;2023-08-21T03:55:02;13.40;99.90
57026;DHT22;43961;52.940;6.834;2023-08-21T03:57:29;13.40;99.90
57026;DHT22;43961;52.940;6.834;2023-08-21T03:59:54;13.30;99.90
57026;DHT22;43961;52.940;6.834;2023-08-21T04:02:21;13.30;99.90
57026;DHT22;43961;52.940;6.834;2023-08-21T04:04:47;13.30;99.90
57026;DHT22;43961;52.940;6.834;2023-08-21T04:07:12;13.30;99.90
57026;DHT22;43961;52.940;6.834;2023-08-21T04:09:38;13.20;99.90
57026;DHT22;43961;52.940;6.834;2023-08-21T04:12:04;13.20;99.90
57026;DHT22;43961;52.940;6.834;2023-08-21T04:14:29;13.20;99.90
57026;DHT22;43961;52.940;6.834;2023-08-21T04:16:55;13.20;99.90
57026;DHT22;43961;52.940;6.834;2023-08-21T04:19:20;13.20;99.90
57026;DHT22;43961;52.940;6.834;2023-08-21T04:21:46;13.10;99.90
57026;DHT22;43961;52.940;6.834;2023-08-21T04:24:12;13.10;99.90
57026;DHT22;43961;52.940;6.834;2023-08-21T04:26:37;13.10;99.90
57026;DHT22;43961;52.940;6.834;2023-08-21T04:29:03;13.00;99.90
57026;DHT22;43961;52.940;6.834;2023-08-21T04:31:29;13.00;99.90
57026;DHT22;43961;52.940;6.834;2023-08-21T04:33:55;13.00;99.90
57026;DHT22;43961;52.940;6.834;2023-08-21T04:36:22;13.00;99.90
57026;DHT22;43961;52.940;6.834;2023-08-21T04:38:47;13.00;99.90
57026;DHT22;43961;52.940;6.834;2023-08-21T04:41:13;13.00;99.90
57026;DHT22;43961;52.940;6.834;2023-08-21T04:43:39;13.00;99.90
57026;DHT22;43961;52.940;6.834;2023-08-21T04:46:05;13.00;99.90
57026;DHT22;43961;52.940;6.834;2023-08-21T04:48:31;12.90;99.90
57026;DHT22;43961;52.940;6.834;2023-08-21T04:50:57;13.00;99.90
57026;DHT22;43961;52.940;6.834;2023-08-21T04:53:22;13.00;99.90
57026;DHT22;43961;52.940;6.834;2023-08-21T04:55:48;13.10;99.90
57026;DHT22;43961;52.940;6.834;2023-08-21T04:58:14;13.10;99.90
57026;DHT22;43961;52.940;6.834;2023-08-21T05:00:40;13.10;99.90
57026;DHT22;43961;52.940;6.834;2023-08-21T05:03:06;13.10;99.90
57026;DHT22;43961;52.940;6.834;2023-08-21T05:05:35;13.20;99.90
57026;DHT22;43961;52.940;6.834;2023-08-21T05:08:01;13.30;99.90
57026;DHT22;43961;52.940;6.834;2023-08-21T05:10:26;13.30;99.90
57026;DHT22;43961;52.940;6.834;2023-08-21T05:12:52;13.40;99.90
57026;DHT22;43961;52.940;6.834;2023-08-21T05:15:18;13.50;99.90
57026;DHT22;43961;52.940;6.834;2023-08-21T05:17:43;13.50;99.90
57026;DHT22;43961;52.940;6.834;2023-08-21T05:20:09;13.60;99.90
57026;DHT22;43961;52.940;6.834;2023-08-21T05:22:39;13.70;99.90
57026;DHT22;43961;52.940;6.834;2023-08-21T05:25:06;13.80;99.90
57026;DHT22;43961;52.940;6.834;2023-08-21T05:27:32;13.90;99.90
57026;DHT22;43961;52.940;6.834;2023-08-21T05:29:59;14.00;99.90
57026;DHT22;43961;52.940;6.834;2023-08-21T05:32:25;14.00;99.90
57026;DHT22;43961;52.940;6.834;2023-08-21T05:34:50;14.10;99.90
57026;DHT22;43961;52.940;6.834;2023-08-21T05:37:16;14.20;99.90
57026;DHT22;43961;52.940;6.834;2023-08-21T05:39:42;14.20;99.90
57026;DHT22;43961;52.940;6.834;2023-08-21T05:42:07;14.30;99.90
57026;DHT22;43961;52.940;6.834;2023-08-21T05:44:33;14.40;99.90
57026;DHT22;43961;52.940;6.834;2023-08-21T05:46:58;14.40;99.90
57026;DHT22;43961;52.940;6.834;2023-08-21T05:49:24;14.40;99.90
57026;DHT22;43961;52.940;6.834;2023-08-21T05:51:50;14.40;99.90
57026;DHT22;43961;52.940;6.834;2023-08-21T05:54:15;14.50;99.90
57026;DHT22;43961;52.940;6.834;2023-08-21T05:56:41;14.50;99.90
57026;DHT22;43961;52.940;6.834;2023-08-21T05:59:10;14.50;99.90
57026;DHT22;43961;52.940;6.834;2023-08-21T06:01:37;14.60;99.90
57026;DHT22;43961;52.940;6.834;2023-08-21T06:04:02;14.60;99.90
57026;DHT22;43961;52.940;6.834;2023-08-21T06:06:28;14.60;99.90
57026;DHT22;43961;52.940;6.834;2023-08-21T06:08:54;14.60;99.90
57026;DHT22;43961;52.940;6.834;2023-08-21T06:11:20;14.70;99.90
57026;DHT22;43961;52.940;6.834;2023-08-21T06:13:47;14.70;99.90
57026;DHT22;43961;52.940;6.834;2023-08-21T06:16:13;14.70;99.90
57026;DHT22;43961;52.940;6.834;2023-08-21T06:18:38;14.80;99.90
57026;DHT22;43961;52.940;6.834;2023-08-21T06:21:04;14.90;99.90
57026;DHT22;43961;52.940;6.834;2023-08-21T06:23:29;14.90;99.90
57026;DHT22;43961;52.940;6.834;2023-08-21T06:25:55;15.00;99.90
57026;DHT22;43961;52.940;6.834;2023-08-21T06:28:21;15.10;99.90
57026;DHT22;43961;52.940;6.834;2023-08-21T06:30:46;15.20;99.90
57026;DHT22;43961;52.940;6.834;2023-08-21T06:33:12;15.30;99.90
57026;DHT22;43961;52.940;6.834;2023-08-21T06:35:38;15.50;99.90
57026;DHT22;43961;52.940;6.834;2023-08-21T06:38:05;15.70;99.90
57026;DHT22;43961;52.940;6.834;2023-08-21T06:40:31;15.80;99.90
57026;DHT22;43961;52.940;6.834;2023-08-21T06:42:57;15.90;99.90
57026;DHT22;43961;52.940;6.834;2023-08-21T06:45:23;16.10;99.90
57026;DHT22;43961;52.940;6.834;2023-08-21T06:47:49;16.20;99.90
57026;DHT22;43961;52.940;6.834;2023-08-21T06:50:16;16.30;99.90
57026;DHT22;43961;52.940;6.834;2023-08-21T06:52:42;16.50;99.90
57026;DHT22;43961;52.940;6.834;2023-08-21T06:55:07;16.60;99.90
57026;DHT22;43961;52.940;6.834;2023-08-21T06:57:33;16.90;99.90
57026;DHT22;43961;52.940;6.834;2023-08-21T06:59:59;17.00;99.90
57026;DHT22;43961;52.940;6.834;2023-08-21T07:02:24;17.20;99.90
57026;DHT22;43961;52.940;6.834;2023-08-21T07:04:50;17.50;99.90
57026;DHT22;43961;52.940;6.834;2023-08-21T07:07:16;17.70;99.90
57026;DHT22;43961;52.940;6.834;2023-08-21T07:09:45;17.90;99.90
57026;DHT22;43961;52.940;6.834;2023-08-21T07:12:11;18.20;99.90
57026;DHT22;43961;52.940;6.834;2023-08-21T07:14:37;18.50;99.90
57026;DHT22;43961;52.940;6.834;2023-08-21T07:17:02;18.70;99.90
57026;DHT22;43961;52.940;6.834;2023-08-21T07:19:28;19.00;99.90
57026;DHT22;43961;52.940;6.834;2023-08-21T07:21:54;19.30;99.90
57026;DHT22;43961;52.940;6.834;2023-08-21T07:24:19;19.60;99.90
57026;DHT22;43961;52.940;6.834;2023-08-21T07:26:45;19.90;99.90
57026;DHT22;43961;52.940;6.834;2023-08-21T07:29:11;20.20;99.90
57026;DHT22;43961;52.940;6.834;2023-08-21T07:31:37;20.50;99.90
57026;DHT22;43961;52.940;6.834;2023-08-21T07:34:03;20.70;99.90
57026;DHT22;43961;52.940;6.834;2023-08-21T07:36:29;20.90;99.90
57026;DHT22;43961;52.940;6.834;2023-08-21T07:38:56;21.10;99.90
57026;DHT22;43961;52.940;6.834;2023-08-21T07:41:22;21.30;99.90
57026;DHT22;43961;52.940;6.834;2023-08-21T07:43:48;21.50;99.90
57026;DHT22;43961;52.940;6.834;2023-08-21T07:46:14;21.80;99.90
57026;DHT22;43961;52.940;6.834;2023-08-21T07:48:44;22.00;99.90
57026;DHT22;43961;52.940;6.834;2023-08-21T07:51:10;22.20;99.90
57026;DHT22;43961;52.940;6.834;2023-08-21T07:53:37;22.40;99.90
57026;DHT22;43961;52.940;6.834;2023-08-21T07:56:03;22.60;99.90
57026;DHT22;43961;52.940;6.834;2023-08-21T07:58:31;22.80;99.90
57026;DHT22;43961;52.940;6.834;2023-08-21T08:00:58;23.00;99.90
57026;DHT22;43961;52.940;6.834;2023-08-21T08:03:24;23.20;99.90
57026;DHT22;43961;52.940;6.834;2023-08-21T08:05:50;23.40;99.90
57026;DHT22;43961;52.940;6.834;2023-08-21T08:08:17;23.60;99.90
57026;DHT22;43961;52.940;6.834;2023-08-21T08:10:42;23.80;99.90
57026;DHT22;43961;52.940;6.834;2023-08-21T08:13:08;24.00;99.90
57026;DHT22;43961;52.940;6.834;2023-08-21T08:15:34;24.20;99.90
57026;DHT22;43961;52.940;6.834;2023-08-21T08:18:04;24.40;99.90
57026;DHT22;43961;52.940;6.834;2023-08-21T08:20:31;24.50;99.90
57026;DHT22;43961;52.940;6.834;2023-08-21T08:22:56;24.50;99.90
57026;DHT22;43961;52.940;6.834;2023-08-21T08:25:23;24.70;99.90
57026;DHT22;43961;52.940;6.834;2023-08-21T08:27:49;24.90;99.90
57026;DHT22;43961;52.940;6.834;2023-08-21T08:30:15;25.20;99.90
57026;DHT22;43961;52.940;6.834;2023-08-21T08:32:44;25.30;99.90
57026;DHT22;43961;52.940;6.834;2023-08-21T08:35:13;25.50;99.90
57026;DHT22;43961;52.940;6.834;2023-08-21T08:37:40;25.70;99.90
57026;DHT22;43961;52.940;6.834;2023-08-21T08:40:07;25.90;99.90
57026;DHT22;43961;52.940;6.834;2023-08-21T08:42:34;26.10;99.90
57026;DHT22;43961;52.940;6.834;2023-08-21T08:45:02;26.20;99.90
57026;DHT22;43961;52.940;6.834;2023-08-21T08:47:32;26.40;99.90
57026;DHT22;43961;52.940;6.834;2023-08-21T08:49:59;26.60;99.90
57026;DHT22;43961;52.940;6.834;2023-08-21T08:52:26;26.80;99.90
57026;DHT22;43961;52.940;6.834;2023-08-21T08:54:55;27.00;99.90
57026;DHT22;43961;52.940;6.834;2023-08-21T08:57:21;27.10;99.90
57026;DHT22;43961;52.940;6.834;2023-08-21T08:59:46;27.20;99.90
57026;DHT22;43961;52.940;6.834;2023-08-21T09:02:12;27.50;99.90
57026;DHT22;43961;52.940;6.834;2023-08-21T09:04:38;27.70;99.90
57026;DHT22;43961;52.940;6.834;2023-08-21T09:09:41;28.00;99.90
57026;DHT22;43961;52.940;6.834;2023-08-21T09:12:11;28.00;99.90
57026;DHT22;43961;52.940;6.834;2023-08-21T09:14:41;27.90;99.90
57026;DHT22;43961;52.940;6.834;2023-08-21T09:17:07;27.90;99.90
57026;DHT22;43961;52.940;6.834;2023-08-21T09:19:32;28.20;99.90
57026;DHT22;43961;52.940;6.834;2023-08-21T09:21:58;28.30;99.90
57026;DHT22;43961;52.940;6.834;2023-08-21T09:24:25;28.40;99.90
57026;DHT22;43961;52.940;6.834;2023-08-21T09:26:51;28.50;99.90
57026;DHT22;43961;52.940;6.834;2023-08-21T09:29:18;28.80;99.90
57026;DHT22;43961;52.940;6.834;2023-08-21T09:31:43;29.00;99.90
57026;DHT22;43961;52.940;6.834;2023-08-21T09:34:11;29.20;99.90
57026;DHT22;43961;52.940;6.834;2023-08-21T09:36:38;29.20;99.90
57026;DHT22;43961;52.940;6.834;2023-08-21T09:39:04;29.20;99.90
57026;DHT22;43961;52.940;6.834;2023-08-21T09:41:32;29.30;99.90
57026;DHT22;43961;52.940;6.834;2023-08-21T09:44:01;29.60;99.90
57026;DHT22;43961;52.940;6.834;2023-08-21T09:46:29;29.80;99.90
57026;DHT22;43961;52.940;6.834;2023-08-21T09:48:55;30.00;99.90
57026;DHT22;43961;52.940;6.834;2023-08-21T09:51:21;29.90;98.50
57026;DHT22;43961;52.940;6.834;2023-08-21T09:53:50;29.90;96.70
57026;DHT22;43961;52.940;6.834;2023-08-21T09:56:18;29.80;98.00
57026;DHT22;43961;52.940;6.834;2023-08-21T09:58:44;29.90;96.80
57026;DHT22;43961;52.940;6.834;2023-08-21T10:01:11;30.00;96.90
57026;DHT22;43961;52.940;6.834;2023-08-21T10:03:41;30.00;95.90
57026;DHT22;43961;52.940;6.834;2023-08-21T10:06:11;30.20;95.00
57026;DHT22;43961;52.940;6.834;2023-08-21T10:08:39;30.30;95.30
57026;DHT22;43961;52.940;6.834;2023-08-21T10:11:08;30.40;94.60
57026;DHT22;43961;52.940;6.834;2023-08-21T10:13:36;30.60;94.90
57026;DHT22;43961;52.940;6.834;2023-08-21T10:16:03;30.60;93.10
57026;DHT22;43961;52.940;6.834;2023-08-21T10:18:32;30.60;92.50
57026;DHT22;43961;52.940;6.834;2023-08-21T10:21:18;30.80;94.70
57026;DHT22;43961;52.940;6.834;2023-08-21T10:23:52;30.90;94.20
57026;DHT22;43961;52.940;6.834;2023-08-21T10:26:20;31.00;93.30
57026;DHT22;43961;52.940;6.834;2023-08-21T10:28:55;31.10;93.10
57026;DHT22;43961;52.940;6.834;2023-08-21T10:33:55;30.90;90.10
57026;DHT22;43961;52.940;6.834;2023-08-21T10:36:38;30.80;90.40
57026;DHT22;43961;52.940;6.834;2023-08-21T10:39:18;30.80;81.70
57026;DHT22;43961;52.940;6.834;2023-08-21T10:42:03;30.90;89.90
57026;DHT22;43961;52.940;6.834;2023-08-21T10:44:52;30.80;85.40
57026;DHT22;43961;52.940;6.834;2023-08-21T10:49:59;31.00;88.50
57026;DHT22;43961;52.940;6.834;2023-08-21T10:52:39;31.10;89.00
57026;DHT22;43961;52.940;6.834;2023-08-21T10:55:07;31.20;85.00
57026;DHT22;43961;52.940;6.834;2023-08-21T10:57:35;31.30;86.80
57026;DHT22;43961;52.940;6.834;2023-08-21T11:00:15;31.40;85.40
57026;DHT22;43961;52.940;6.834;2023-08-21T11:02:42;31.50;86.70
57026;DHT22;43961;52.940;6.834;2023-08-21T11:05:10;31.60;86.10
57026;DHT22;43961;52.940;6.834;2023-08-21T11:07:48;31.60;82.30
57026;DHT22;43961;52.940;6.834;2023-08-21T11:10:14;31.60;80.10
57026;DHT22;43961;52.940;6.834;2023-08-21T11:12:57;31.60;80.00
57026;DHT22;43961;52.940;6.834;2023-08-21T11:15:24;31.60;78.20
57026;DHT22;43961;52.940;6.834;2023-08-21T11:17:58;31.60;81.30
57026;DHT22;43961;52.940;6.834;2023-08-21T11:20:32;31.70;79.90
57026;DHT22;43961;52.940;6.834;2023-08-21T11:23:05;31.90;81.10
57026;DHT22;43961;52.940;6.834;2023-08-21T11:25:42;31.90;82.10
57026;DHT22;43961;52.940;6.834;2023-08-21T11:28:07;32.00;79.70
57026;DHT22;43961;52.940;6.834;2023-08-21T11:30:33;32.10;80.40
57026;DHT22;43961;52.940;6.834;2023-08-21T11:33:10;32.00;78.50
57026;DHT22;43961;52.940;6.834;2023-08-21T11:35:37;31.90;78.30
57026;DHT22;43961;52.940;6.834;2023-08-21T11:38:04;31.70;78.60
57026;DHT22;43961;52.940;6.834;2023-08-21T11:40:30;31.90;81.50
57026;DHT22;43961;52.940;6.834;2023-08-21T11:43:02;32.00;78.00
57026;DHT22;43961;52.940;6.834;2023-08-21T11:45:29;32.10;77.60
57026;DHT22;43961;52.940;6.834;2023-08-21T11:47:58;32.10;78.50
57026;DHT22;43961;52.940;6.834;2023-08-21T11:50:23;32.10;78.60
57026;DHT22;43961;52.940;6.834;2023-08-21T11:52:55;32.20;79.40
57026;DHT22;43961;52.940;6.834;2023-08-21T11:55:20;32.30;77.30
57026;DHT22;43961;52.940;6.834;2023-08-21T11:57:49;32.40;76.80
57026;DHT22;43961;52.940;6.834;2023-08-21T12:00:16;32.40;73.50
57026;DHT22;43961;52.940;6.834;2023-08-21T12:02:58;32.30;74.80
57026;DHT22;43961;52.940;6.834;2023-08-21T12:05:25;32.20;73.70
57026;DHT22;43961;52.940;6.834;2023-08-21T12:07:51;32.20;77.00
57026;DHT22;43961;52.940;6.834;2023-08-21T12:10:28;32.30;77.30
57026;DHT22;43961;52.940;6.834;2023-08-21T12:12:55;32.30;75.90
57026;DHT22;43961;52.940;6.834;2023-08-21T12:15:21;32.40;76.70
57026;DHT22;43961;52.940;6.834;2023-08-21T12:17:47;32.40;75.70
57026;DHT22;43961;52.940;6.834;2023-08-21T12:20:13;32.30;75.40
57026;DHT22;43961;52.940;6.834;2023-08-21T12:22:40;32.20;75.20
57026;DHT22;43961;52.940;6.834;2023-08-21T12:25:08;32.20;77.30
57026;DHT22;43961;52.940;6.834;2023-08-21T12:27:34;32.10;76.60
57026;DHT22;43961;52.940;6.834;2023-08-21T12:30:00;32.10;75.30
57026;DHT22;43961;52.940;6.834;2023-08-21T12:32:25;32.10;74.10
57026;DHT22;43961;52.940;6.834;2023-08-21T12:34:54;32.10;75.70
57026;DHT22;43961;52.940;6.834;2023-08-21T12:37:20;32.20;73.80
57026;DHT22;43961;52.940;6.834;2023-08-21T12:39:46;32.20;72.20
57026;DHT22;43961;52.940;6.834;2023-08-21T12:42:11;32.00;73.80
57026;DHT22;43961;52.940;6.834;2023-08-21T12:44:38;31.80;73.40
57026;DHT22;43961;52.940;6.834;2023-08-21T12:47:03;31.70;71.60
57026;DHT22;43961;52.940;6.834;2023-08-21T12:49:29;31.60;71.70
57026;DHT22;43961;52.940;6.834;2023-08-21T12:51:55;31.60;73.30
57026;DHT22;43961;52.940;6.834;2023-08-21T12:54:21;31.60;72.20
57026;DHT22;43961;52.940;6.834;2023-08-21T12:56:46;31.70;72.30
57026;DHT22;43961;52.940;6.834;2023-08-21T12:59:13;31.70;71.10
57026;DHT22;43961;52.940;6.834;2023-08-21T13:01:42;31.70;73.20
57026;DHT22;43961;52.940;6.834;2023-08-21T13:04:10;31.70;70.60
57026;DHT22;43961;52.940;6.834;2023-08-21T13:06:36;31.80;70.40
57026;DHT22;43961;52.940;6.834;2023-08-21T13:09:01;31.80;71.10
57026;DHT22;43961;52.940;6.834;2023-08-21T13:11:28;31.80;70.30
57026;DHT22;43961;52.940;6.834;2023-08-21T13:13:55;31.70;71.20
57026;DHT22;43961;52.940;6.834;2023-08-21T13:16:20;31.70;72.30
57026;DHT22;43961;52.940;6.834;2023-08-21T13:18:46;31.80;70.50
57026;DHT22;43961;52.940;6.834;2023-08-21T13:21:12;31.80;69.30
57026;DHT22;43961;52.940;6.834;2023-08-21T13:23:37;31.80;71.90
57026;DHT22;43961;52.940;6.834;2023-08-21T13:26:03;31.70;69.90
57026;DHT22;43961;52.940;6.834;2023-08-21T13:28:28;31.50;71.70
57026;DHT22;43961;52.940;6.834;2023-08-21T13:30:56;31.50;72.80
57026;DHT22;43961;52.940;6.834;2023-08-21T13:33:23;31.50;70.50
57026;DHT22;43961;52.940;6.834;2023-08-21T13:35:49;31.50;72.10
57026;DHT22;43961;52.940;6.834;2023-08-21T13:38:15;31.50;69.90
57026;DHT22;43961;52.940;6.834;2023-08-21T13:40:41;31.50;71.10
57026;DHT22;43961;52.940;6.834;2023-08-21T13:43:07;31.60;69.70
57026;DHT22;43961;52.940;6.834;2023-08-21T13:45:35;31.60;68.50
57026;DHT22;43961;52.940;6.834;2023-08-21T13:48:01;31.60;71.80
57026;DHT22;43961;52.940;6.834;2023-08-21T13:50:26;31.70;68.80
57026;DHT22;43961;52.940;6.834;2023-08-21T13:52:52;31.70;70.40
57026;DHT22;43961;52.940;6.834;2023-08-21T13:55:18;31.50;68.30
57026;DHT22;43961;52.940;6.834;2023-08-21T13:57:44;31.50;68.70
57026;DHT22;43961;52.940;6.834;2023-08-21T14:00:11;31.40;69.00
57026;DHT22;43961;52.940;6.834;2023-08-21T14:02:38;31.40;67.90
57026;DHT22;43961;52.940;6.834;2023-08-21T14:05:05;31.40;68.90
57026;DHT22;43961;52.940;6.834;2023-08-21T14:07:32;31.40;68.30
57026;DHT22;43961;52.940;6.834;2023-08-21T14:09:58;31.30;67.60
57026;DHT22;43961;52.940;6.834;2023-08-21T14:12:23;31.30;69.40
57026;DHT22;43961;52.940;6.834;2023-08-21T14:14:49;31.20;68.00
57026;DHT22;43961;52.940;6.834;2023-08-21T14:17:15;31.20;68.70
57026;DHT22;43961;52.940;6.834;2023-08-21T14:19:41;31.30;68.90
57026;DHT22;43961;52.940;6.834;2023-08-21T14:22:07;31.10;66.60
57026;DHT22;43961;52.940;6.834;2023-08-21T14:24:33;31.00;67.80
57026;DHT22;43961;52.940;6.834;2023-08-21T14:26:59;31.10;68.90
57026;DHT22;43961;52.940;6.834;2023-08-21T14:29:25;31.10;68.80
57026;DHT22;43961;52.940;6.834;2023-08-21T14:31:50;31.10;70.40
57026;DHT22;43961;52.940;6.834;2023-08-21T14:34:19;31.10;67.60
57026;DHT22;43961;52.940;6.834;2023-08-21T14:36:46;30.90;68.10
57026;DHT22;43961;52.940;6.834;2023-08-21T14:39:13;30.90;68.10
57026;DHT22;43961;52.940;6.834;2023-08-21T14:41:41;30.90;67.90
57026;DHT22;43961;52.940;6.834;2023-08-21T14:44:08;30.80;68.50
57026;DHT22;43961;52.940;6.834;2023-08-21T14:46:33;30.70;69.80
57026;DHT22;43961;52.940;6.834;2023-08-21T14:49:00;30.70;70.50
57026;DHT22;43961;52.940;6.834;2023-08-21T14:51:26;30.70;71.80
57026;DHT22;43961;52.940;6.834;2023-08-21T14:53:51;30.70;71.80
57026;DHT22;43961;52.940;6.834;2023-08-21T14:56:17;30.70;72.20
57026;DHT22;43961;52.940;6.834;2023-08-21T14:58:43;30.70;71.00
57026;DHT22;43961;52.940;6.834;2023-08-21T15:01:10;30.60;72.20
57026;DHT22;43961;52.940;6.834;2023-08-21T15:03:38;30.60;71.70
57026;DHT22;43961;52.940;6.834;2023-08-21T15:06:05;30.60;70.20
57026;DHT22;43961;52.940;6.834;2023-08-21T15:08:31;30.50;69.40
57026;DHT22;43961;52.940;6.834;2023-08-21T15:10:56;30.40;70.10
57026;DHT22;43961;52.940;6.834;2023-08-21T15:13:22;30.30;70.90
57026;DHT22;43961;52.940;6.834;2023-08-21T15:15:48;30.20;71.10
57026;DHT22;43961;52.940;6.834;2023-08-21T15:18:13;30.20;71.70
57026;DHT22;43961;52.940;6.834;2023-08-21T15:20:39;30.20;71.20
57026;DHT22;43961;52.940;6.834;2023-08-21T15:23:05;30.20;72.30
57026;DHT22;43961;52.940;6.834;2023-08-21T15:25:30;30.10;72.30
57026;DHT22;43961;52.940;6.834;2023-08-21T15:27:56;30.10;73.20
57026;DHT22;43961;52.940;6.834;2023-08-21T15:30:22;30.20;73.60
57026;DHT22;43961;52.940;6.834;2023-08-21T15:32:47;30.20;72.50
57026;DHT22;43961;52.940;6.834;2023-08-21T15:35:14;30.20;71.90
57026;DHT22;43961;52.940;6.834;2023-08-21T15:37:40;30.10;70.30